createdAt,value
2018-05-23T00:00:24.717Z,14
2018-05-23T00:02:23.042Z,13.9
2018-05-23T00:03:22.475Z,13.9
2018-05-23T00:04:21.805Z,13.9
2018-05-23T00:05:21.129Z,13.9
2018-05-23T00:06:20.455Z,13.9
2018-05-23T00:07:19.386Z,13.9
2018-05-23T00:08:18.602Z,13.9
2018-05-23T00:08:48.731Z,13.9
2018-05-23T00:09:19.157Z,13.9
2018-05-23T00:09:49.969Z,13.9
2018-05-23T00:11:16.565Z,13.9
2018-05-23T00:12:15.997Z,13.9
2018-05-23T00:13:14.822Z,13.9
2018-05-23T00:14:14.250Z,13.9
2018-05-23T00:15:13.464Z,13.9
2018-05-23T00:15:43.726Z,13.9
2018-05-23T00:16:14.258Z,13.9
2018-05-23T00:17:11.862Z,13.8
2018-05-23T00:18:11.074Z,13.8
2018-05-23T00:19:10.289Z,13.8
2018-05-23T00:21:09.001Z,13.8
2018-05-23T00:22:08.333Z,13.8
2018-05-23T00:23:07.661Z,13.8
2018-05-23T00:24:06.661Z,13.8
2018-05-23T00:25:06.388Z,13.8
2018-05-23T00:26:05.324Z,13.8
2018-05-23T00:26:35.956Z,13.8
2018-05-23T00:27:05.978Z,13.7
2018-05-23T00:27:36.718Z,13.7
2018-05-23T00:28:07.252Z,13.7
2018-05-23T00:28:37.775Z,13.7
2018-05-23T00:30:02.768Z,13.7
2018-05-23T00:31:01.885Z,13.7
2018-05-23T00:32:00.884Z,13.7
2018-05-23T00:33:00.324Z,13.7
2018-05-23T00:33:59.825Z,13.7
2018-05-23T00:34:58.754Z,13.7
2018-05-23T00:35:57.871Z,13.7
2018-05-23T00:36:57.193Z,13.7
2018-05-23T00:37:27.328Z,13.7
2018-05-23T00:37:57.865Z,13.7
2018-05-23T00:38:28.611Z,13.7
2018-05-23T00:38:59.246Z,13.7
2018-05-23T00:39:29.887Z,13.7
2018-05-23T00:40:00.535Z,13.7
2018-05-23T00:40:31.075Z,13.7
2018-05-23T00:41:53.449Z,13.7
2018-05-23T00:42:52.662Z,13.7
2018-05-23T00:43:51.877Z,13.7
2018-05-23T00:44:51.200Z,13.7
2018-05-23T00:45:50.533Z,13.6
2018-05-23T00:46:49.743Z,13.6
2018-05-23T00:47:49.089Z,13.6
2018-05-23T00:48:48.406Z,13.6
2018-05-23T00:50:46.624Z,13.6
2018-05-23T00:51:46.477Z,13.6
2018-05-23T00:53:44.478Z,13.5
2018-05-23T00:54:43.806Z,13.5
2018-05-23T00:55:43.001Z,13.5
2018-05-23T00:57:41.620Z,13.5
2018-05-23T00:58:40.846Z,13.5
2018-05-23T00:59:40.060Z,13.5
2018-05-23T01:00:39.380Z,13.5
2018-05-23T01:02:38.093Z,13.5
2018-05-23T01:03:37.196Z,13.5
2018-05-23T01:04:36.419Z,13.5
2018-05-23T01:05:35.752Z,13.5
2018-05-23T01:06:35.193Z,13.5
2018-05-23T01:07:34.516Z,13.5
2018-05-23T01:08:33.651Z,13.5
2018-05-23T01:09:32.469Z,13.5
2018-05-23T01:10:02.886Z,13.5
2018-05-23T01:10:33.309Z,13.5
2018-05-23T01:11:31.411Z,13.5
2018-05-23T01:12:30.743Z,13.5
2018-05-23T01:13:29.579Z,13.5
2018-05-23T01:14:29.006Z,13.5
2018-05-23T01:15:28.325Z,13.5
2018-05-23T01:16:27.652Z,13.5
2018-05-23T01:17:26.593Z,13.5
2018-05-23T01:18:26.028Z,13.5
2018-05-23T01:19:25.499Z,13.5
2018-05-23T01:20:24.764Z,13.5
2018-05-23T01:21:23.588Z,13.5
2018-05-23T01:22:23.011Z,13.5
2018-05-23T01:23:22.440Z,13.4
2018-05-23T01:24:21.660Z,13.4
2018-05-23T01:25:20.873Z,13.4
2018-05-23T01:26:20.101Z,13.4
2018-05-23T01:27:19.352Z,13.4
2018-05-23T01:28:18.423Z,13.4
2018-05-23T01:29:17.822Z,13.4
2018-05-23T01:31:16.032Z,13.4
2018-05-23T01:32:15.652Z,13.4
2018-05-23T01:33:14.864Z,13.4
2018-05-23T01:34:13.747Z,13.4
2018-05-23T01:35:13.475Z,13.4
2018-05-23T01:35:43.907Z,13.4
2018-05-23T01:36:14.540Z,13.4
2018-05-23T01:36:45.185Z,13.4
2018-05-23T01:38:11.186Z,13.4
2018-05-23T01:39:10.296Z,13.4
2018-05-23T01:40:09.612Z,13.3
2018-05-23T01:41:09.036Z,13.4
2018-05-23T01:42:08.149Z,13.3
2018-05-23T01:43:07.476Z,13.4
2018-05-23T01:44:06.191Z,13.3
2018-05-23T01:45:05.926Z,13.3
2018-05-23T01:45:36.361Z,13.3
2018-05-23T01:46:06.892Z,13.3
2018-05-23T01:46:37.321Z,13.3
2018-05-23T01:47:07.868Z,13.3
2018-05-23T01:47:38.407Z,13.3
2018-05-23T01:49:02.568Z,13.3
2018-05-23T01:50:01.784Z,13.3
2018-05-23T01:52:59.894Z,13.2
2018-05-23T01:53:59.111Z,13.2
2018-05-23T01:55:57.719Z,13.2
2018-05-23T01:56:56.652Z,13.2
2018-05-23T01:57:56.080Z,13.2
2018-05-23T01:58:26.217Z,13.2
2018-05-23T01:58:56.742Z,13.1
2018-05-23T01:59:27.096Z,13.1
2018-05-23T02:00:53.736Z,13.1
2018-05-23T02:01:53.084Z,13.1
2018-05-23T02:02:52.087Z,13.1
2018-05-23T02:03:51.532Z,13.1
2018-05-23T02:04:50.754Z,13.1
2018-05-23T02:05:20.997Z,13.1
2018-05-23T02:05:51.528Z,13.1
2018-05-23T02:06:49.338Z,13.1
2018-05-23T02:07:48.444Z,13
2018-05-23T02:08:47.880Z,13
2018-05-23T02:10:16.446Z,13
2018-05-23T02:10:18.168Z,13
2018-05-23T02:10:48.473Z,13
2018-05-23T02:11:45.270Z,13
2018-05-23T02:12:44.593Z,13
2018-05-23T02:13:43.915Z,13
2018-05-23T02:14:42.910Z,12.9
2018-05-23T02:15:13.290Z,12.9
2018-05-23T02:15:43.812Z,12.9
2018-05-23T02:16:14.062Z,12.9
2018-05-23T02:16:44.589Z,12.9
2018-05-23T02:17:15.214Z,12.9
2018-05-23T02:17:45.450Z,12.9
2018-05-23T02:18:15.980Z,12.9
2018-05-23T02:19:39.452Z,12.9
2018-05-23T02:20:38.461Z,12.9
2018-05-23T02:21:37.667Z,12.9
2018-05-23T02:22:36.882Z,12.8
2018-05-23T02:23:36.087Z,12.8
2018-05-23T02:24:35.404Z,12.8
2018-05-23T02:25:34.729Z,12.8
2018-05-23T02:26:05.367Z,12.8
2018-05-23T02:26:35.777Z,12.8
2018-05-23T02:27:06.334Z,12.8
2018-05-23T02:27:36.959Z,12.8
2018-05-23T02:28:07.085Z,12.8
2018-05-23T02:28:37.722Z,12.8
2018-05-23T02:29:08.236Z,12.8
2018-05-23T02:30:31.202Z,12.8
2018-05-23T02:31:30.427Z,12.7
2018-05-23T02:32:29.248Z,12.7
2018-05-23T02:33:28.673Z,12.7
2018-05-23T02:34:27.774Z,12.7
2018-05-23T02:35:27.093Z,12.7
2018-05-23T02:36:26.639Z,12.7
2018-05-23T02:37:25.761Z,12.6
2018-05-23T02:38:24.594Z,12.6
2018-05-23T02:39:24.322Z,12.6
2018-05-23T02:40:23.421Z,12.6
2018-05-23T02:42:21.904Z,12.5
2018-05-23T02:43:21.115Z,12.5
2018-05-23T02:44:20.547Z,12.5
2018-05-23T02:45:19.653Z,12.5
2018-05-23T02:46:18.474Z,12.5
2018-05-23T02:47:17.820Z,12.4
2018-05-23T02:48:17.265Z,12.4
2018-05-23T02:49:16.476Z,12.4
2018-05-23T02:50:15.909Z,12.4
2018-05-23T02:51:14.738Z,12.4
2018-05-23T02:52:13.975Z,12.3
2018-05-23T02:53:13.295Z,12.3
2018-05-23T02:54:12.615Z,12.3
2018-05-23T02:55:11.945Z,12.3
2018-05-23T02:56:11.265Z,12.3
2018-05-23T02:57:10.084Z,12.3
2018-05-23T02:58:09.538Z,12.3
2018-05-23T02:58:39.686Z,12.3
2018-05-23T03:00:08.090Z,12.3
2018-05-23T03:01:07.297Z,12.3
2018-05-23T03:02:06.414Z,12.2
2018-05-23T03:03:06.223Z,12.2
2018-05-23T03:04:04.686Z,12.2
2018-05-23T03:05:04.135Z,12.2
2018-05-23T03:06:03.457Z,12.3
2018-05-23T03:07:02.189Z,12.3
2018-05-23T03:08:01.511Z,12.3
2018-05-23T03:09:01.214Z,12.3
2018-05-23T03:09:31.845Z,12.3
2018-05-23T03:10:02.257Z,12.3
2018-05-23T03:10:59.460Z,12.3
2018-05-23T03:11:58.563Z,12.3
2018-05-23T03:12:57.817Z,12.3
2018-05-23T03:13:57.022Z,12.3
2018-05-23T03:15:55.634Z,12.3
2018-05-23T03:16:54.732Z,12.3
2018-05-23T03:17:54.053Z,12.3
2018-05-23T03:18:53.277Z,12.3
2018-05-23T03:19:52.491Z,12.3
2018-05-23T03:20:51.694Z,12.3
2018-05-23T03:21:50.898Z,12.3
2018-05-23T03:22:50.330Z,12.3
2018-05-23T03:23:49.537Z,12.3
2018-05-23T03:24:20.168Z,12.3
2018-05-23T03:24:50.786Z,12.4
2018-05-23T03:25:21.198Z,12.4
2018-05-23T03:27:46.467Z,12.4
2018-05-23T03:28:45.404Z,12.4
2018-05-23T03:29:44.608Z,12.4
2018-05-23T03:30:43.699Z,12.4
2018-05-23T03:31:43.077Z,12.4
2018-05-23T03:32:42.285Z,12.4
2018-05-23T03:33:41.509Z,12.4
2018-05-23T03:34:12.027Z,12.4
2018-05-23T03:34:42.548Z,12.4
2018-05-23T03:35:13.065Z,12.4
2018-05-23T03:35:43.846Z,12.4
2018-05-23T03:36:14.433Z,12.4
2018-05-23T03:37:38.517Z,12.4
2018-05-23T03:38:37.849Z,12.4
2018-05-23T03:39:37.159Z,12.4
2018-05-23T03:40:36.486Z,12.4
2018-05-23T03:41:35.410Z,12.5
2018-05-23T03:42:34.622Z,12.5
2018-05-23T03:43:33.828Z,12.5
2018-05-23T03:44:33.148Z,12.5
2018-05-23T03:45:32.358Z,12.5
2018-05-23T03:46:31.569Z,12.5
2018-05-23T03:47:30.897Z,12.5
2018-05-23T03:49:29.497Z,12.6
2018-05-23T03:50:28.819Z,12.6
2018-05-23T03:51:28.039Z,12.6
2018-05-23T03:52:26.760Z,12.6
2018-05-23T03:53:25.967Z,12.6
2018-05-23T03:53:56.589Z,12.6
2018-05-23T03:54:26.710Z,12.6
2018-05-23T03:54:57.333Z,12.6
2018-05-23T03:55:27.747Z,12.6
2018-05-23T03:56:24.045Z,12.6
2018-05-23T03:57:23.359Z,12.6
2018-05-23T03:58:22.472Z,12.6
2018-05-23T03:59:21.782Z,12.6
2018-05-23T04:00:20.602Z,12.6
2018-05-23T04:01:19.905Z,12.7
2018-05-23T04:02:19.113Z,12.7
2018-05-23T04:03:18.450Z,12.6
2018-05-23T04:03:48.699Z,12.6
2018-05-23T04:04:19.114Z,12.7
2018-05-23T04:04:49.844Z,12.7
2018-05-23T04:05:20.163Z,12.7
2018-05-23T04:05:50.683Z,12.7
2018-05-23T04:06:21.409Z,12.7
2018-05-23T04:06:51.925Z,12.7
2018-05-23T04:07:22.148Z,12.7
2018-05-23T04:07:52.567Z,12.7
2018-05-23T04:09:13.912Z,12.7
2018-05-23T04:10:13.235Z,12.7
2018-05-23T04:11:12.553Z,12.7
2018-05-23T04:12:11.477Z,12.7
2018-05-23T04:13:10.904Z,12.7
2018-05-23T04:14:10.225Z,12.7
2018-05-23T04:15:09.036Z,12.7
2018-05-23T04:15:39.676Z,12.7
2018-05-23T04:16:10.192Z,12.7
2018-05-23T04:16:40.598Z,12.7
2018-05-23T04:17:11.229Z,12.7
2018-05-23T04:17:41.853Z,12.7
2018-05-23T04:19:06.306Z,12.8
2018-05-23T04:20:04.901Z,12.8
2018-05-23T04:21:04.407Z,12.7
2018-05-23T04:22:03.623Z,12.8
2018-05-23T04:23:02.828Z,12.8
2018-05-23T04:24:02.109Z,12.7
2018-05-23T04:25:02.216Z,12.8
2018-05-23T04:26:59.699Z,12.8
2018-05-23T04:27:58.907Z,12.8
2018-05-23T04:28:29.428Z,12.8
2018-05-23T04:29:00.054Z,12.8
2018-05-23T04:29:57.752Z,12.8
2018-05-23T04:30:56.554Z,12.8
2018-05-23T04:31:56.159Z,12.8
2018-05-23T04:32:55.366Z,12.8
2018-05-23T04:33:54.691Z,12.8
2018-05-23T04:34:53.694Z,12.8
2018-05-23T04:35:52.908Z,12.8
2018-05-23T04:36:52.113Z,12.8
2018-05-23T04:38:50.827Z,12.8
2018-05-23T04:39:49.780Z,12.8
2018-05-23T04:40:49.100Z,12.9
2018-05-23T04:41:48.310Z,12.9
2018-05-23T04:42:47.629Z,12.9
2018-05-23T04:43:46.547Z,12.9
2018-05-23T04:45:45.257Z,12.9
2018-05-23T04:46:44.583Z,13
2018-05-23T04:47:14.711Z,13
2018-05-23T04:49:41.995Z,13
2018-05-23T04:50:41.212Z,13
2018-05-23T04:52:40.024Z,13.1
2018-05-23T04:53:38.951Z,13.1
2018-05-23T04:54:38.463Z,13.1
2018-05-23T04:55:37.565Z,13.1
2018-05-23T04:56:36.780Z,13.1
2018-05-23T04:58:35.271Z,13.1
2018-05-23T05:00:33.554Z,13.2
2018-05-23T05:01:33.043Z,13.2
2018-05-23T05:02:32.253Z,13.2
2018-05-23T05:03:02.990Z,13.2
2018-05-23T05:03:33.399Z,13.3
2018-05-23T05:04:30.591Z,13.3
2018-05-23T05:05:29.798Z,13.3
2018-05-23T05:06:29.119Z,13.4
2018-05-23T05:07:28.323Z,13.4
2018-05-23T05:08:27.638Z,13.5
2018-05-23T05:09:26.628Z,13.6
2018-05-23T05:24:15.173Z,14.1
2018-05-23T05:24:45.591Z,14.1
2018-05-23T05:25:16.332Z,14.1
2018-05-23T05:26:13.436Z,14.2
2018-05-23T05:28:12.147Z,14.2
2018-05-23T05:30:10.755Z,14.3
2018-05-23T05:31:10.183Z,14.4
2018-05-23T05:33:08.387Z,14.4
2018-05-23T05:34:07.610Z,14.5
2018-05-23T05:36:06.311Z,14.5
2018-05-23T05:37:05.623Z,14.6
2018-05-23T05:38:04.647Z,14.6
2018-05-23T05:39:03.982Z,14.6
2018-05-23T05:41:02.071Z,14.7
2018-05-23T05:42:01.583Z,14.7
2018-05-23T05:42:31.889Z,14.7
2018-05-23T05:44:00.015Z,14.8
2018-05-23T05:46:57.809Z,14.9
2018-05-23T05:47:57.307Z,15
2018-05-23T05:48:56.301Z,15
2018-05-23T05:49:55.519Z,15
2018-05-23T05:50:54.834Z,15.1
2018-05-23T05:51:54.048Z,15.1
2018-05-23T05:52:24.272Z,15.1
2018-05-23T05:52:54.682Z,15.2
2018-05-23T05:53:24.880Z,15.2
2018-05-23T05:54:51.867Z,15.3
2018-05-23T05:55:22.390Z,15.3
2018-05-23T05:55:52.801Z,15.3
2018-05-23T05:56:23.434Z,15.3
2018-05-23T05:57:49.423Z,15.4
2018-05-23T05:58:48.740Z,15.5
2018-05-23T05:59:47.959Z,15.5
2018-05-23T06:00:47.058Z,15.5
2018-05-23T06:01:46.777Z,15.5
2018-05-23T06:03:44.761Z,15.6
2018-05-23T06:04:44.227Z,15.6
2018-05-23T06:05:14.528Z,15.6
2018-05-23T06:05:45.152Z,15.7
2018-05-23T06:06:15.387Z,15.7
2018-05-23T06:06:45.908Z,15.8
2018-05-23T06:07:16.435Z,15.8
2018-05-23T06:08:41.418Z,15.8
2018-05-23T06:09:40.867Z,15.9
2018-05-23T06:10:39.767Z,15.9
2018-05-23T06:12:38.481Z,16
2018-05-23T06:13:37.590Z,16
2018-05-23T06:14:36.979Z,16
2018-05-23T06:15:36.287Z,16.1
2018-05-23T06:16:35.620Z,16.1
2018-05-23T06:17:34.935Z,16.1
2018-05-23T06:19:33.137Z,16.2
2018-05-23T06:20:32.734Z,16.2
2018-05-23T06:21:32.152Z,16.3
2018-05-23T06:22:30.957Z,16.3
2018-05-23T06:23:30.166Z,16.4
2018-05-23T06:24:29.502Z,16.4
2018-05-23T06:25:00.154Z,16.4
2018-05-23T06:25:30.782Z,16.5
2018-05-23T06:26:28.483Z,16.5
2018-05-23T06:27:27.477Z,16.5
2018-05-23T06:28:26.682Z,16.5
2018-05-23T06:29:26.008Z,16.6
2018-05-23T06:30:25.591Z,16.6
2018-05-23T06:31:24.676Z,16.7
2018-05-23T06:32:23.980Z,16.7
2018-05-23T06:35:21.564Z,16.8
2018-05-23T06:35:52.237Z,16.8
2018-05-23T06:37:20.387Z,17
2018-05-23T06:38:19.707Z,17
2018-05-23T06:39:19.012Z,17
2018-05-23T06:40:17.826Z,17.1
2018-05-23T06:41:17.590Z,17.1
2018-05-23T06:42:16.296Z,17.2
2018-05-23T06:43:16.112Z,17.3
2018-05-23T06:44:15.435Z,17.3
2018-05-23T06:46:13.756Z,17.3
2018-05-23T06:46:44.056Z,17.3
2018-05-23T06:47:14.352Z,17.3
2018-05-23T06:47:44.962Z,17.3
2018-05-23T06:48:15.588Z,17.3
2018-05-23T06:50:11.291Z,17.3
2018-05-23T06:51:09.999Z,17.4
2018-05-23T06:52:09.414Z,17.4
2018-05-23T06:53:09.021Z,17.4
2018-05-23T06:55:07.115Z,17.4
2018-05-23T06:56:06.852Z,17.4
2018-05-23T06:57:06.065Z,17.5
2018-05-23T06:58:05.373Z,17.4
2018-05-23T06:59:04.359Z,17.4
2018-05-23T07:00:03.679Z,17.4
2018-05-23T07:01:03.179Z,17.4
2018-05-23T07:02:02.507Z,17.5
2018-05-23T07:02:33.023Z,17.5
2018-05-23T07:03:03.655Z,17.5
2018-05-23T07:04:00.966Z,17.5
2018-05-23T07:05:00.287Z,17.5
2018-05-23T07:07:58.269Z,17.6
2018-05-23T07:08:57.575Z,17.6
2018-05-23T07:09:57.013Z,17.7
2018-05-23T07:12:54.985Z,17.7
2018-05-23T07:13:54.213Z,17.8
2018-05-23T07:15:52.918Z,17.8
2018-05-23T07:18:50.791Z,17.9
2018-05-23T07:19:50.102Z,17.9
2018-05-23T07:22:48.097Z,18.1
2018-05-23T07:25:45.871Z,18.2
2018-05-23T07:27:44.326Z,18.3
2018-05-23T07:28:43.952Z,18.3
2018-05-23T07:30:42.258Z,18.4
2018-05-23T07:31:42.025Z,18.4
2018-05-23T07:32:11.996Z,18.4
2018-05-23T07:32:42.403Z,18.4
2018-05-23T07:33:12.817Z,18.4
2018-05-23T07:34:39.496Z,18.5
2018-05-23T07:35:39.105Z,18.5
2018-05-23T07:36:38.523Z,18.5
2018-05-23T07:41:35.137Z,18.8
2018-05-23T07:42:34.228Z,18.9
2018-05-23T07:43:04.746Z,18.9
2018-05-23T07:44:32.925Z,19
2018-05-23T07:45:03.549Z,19
2018-05-23T07:45:33.709Z,19.1
2018-05-23T07:46:04.308Z,19.1
2018-05-23T07:47:31.116Z,19.2
2018-05-23T07:49:29.708Z,19.3
2018-05-23T07:52:27.405Z,19.3
2018-05-23T07:54:26.403Z,19.5
2018-05-23T07:55:25.617Z,19.5
2018-05-23T07:55:56.357Z,19.5
2018-05-23T07:57:23.925Z,19.5
2018-05-23T08:11:15.256Z,20.1
2018-05-23T08:20:08.947Z,20.4
2018-05-23T08:22:07.834Z,20.4
2018-05-23T08:34:59.909Z,20.6
2018-05-23T08:52:48.601Z,20.8
2018-05-23T09:05:39.974Z,21.1
2018-05-23T09:24:28.790Z,20.9
2018-05-23T09:24:59.333Z,20.9
2018-05-23T09:28:26.129Z,21.1
2018-05-23T09:51:12.481Z,22.6
2018-05-23T10:13:59.221Z,23.2
2018-05-23T10:22:54.665Z,23.4
2018-05-23T10:24:53.262Z,23.6
2018-05-23T10:29:50.740Z,23.5
2018-05-23T10:30:50.051Z,23.5
2018-05-23T10:34:47.651Z,23.7
2018-05-23T10:43:43.078Z,23.9
2018-05-23T11:04:31.640Z,23.4
2018-05-23T11:10:28.394Z,23.8
2018-05-23T11:13:26.979Z,23.9
2018-05-23T11:14:26.203Z,23.8
2018-05-23T11:23:21.738Z,24.5
2018-05-23T11:33:16.828Z,25.4
2018-05-23T11:39:13.974Z,25.8
2018-05-23T11:44:11.337Z,26
2018-05-23T12:56:39.702Z,24.2
2018-05-23T12:59:38.469Z,24.1
2018-05-23T13:00:08.767Z,24.1
2018-05-23T13:19:29.147Z,23.6
2018-05-23T13:28:24.470Z,23.4
2018-05-23T13:37:20.502Z,23.1
2018-05-23T13:45:16.331Z,22.8
2018-05-23T13:45:46.644Z,22.8
2018-05-23T14:04:06.646Z,22.7
2018-05-23T14:04:37.053Z,22.7
2018-05-23T14:05:07.477Z,22.7
2018-05-23T14:12:02.604Z,22.6
2018-05-23T14:13:01.913Z,22.6
2018-05-23T14:15:01.016Z,22.6
2018-05-23T14:15:31.421Z,22.6
2018-05-23T14:16:59.825Z,22.6
2018-05-23T14:17:30.141Z,22.6
2018-05-23T14:18:00.671Z,22.6
2018-05-23T14:18:59.322Z,22.6
2018-05-23T14:19:58.292Z,22.6
2018-05-23T14:20:57.783Z,22.6
2018-05-23T14:22:56.989Z,22.6
2018-05-23T14:23:56.194Z,22.6
2018-05-23T14:24:55.907Z,22.6
2018-05-23T14:25:55.230Z,22.6
2018-05-23T14:26:54.549Z,22.6
2018-05-23T14:27:25.069Z,22.6
2018-05-23T14:27:55.189Z,22.6
2018-05-23T14:28:25.711Z,22.6
2018-05-23T14:28:56.235Z,22.6
2018-05-23T14:29:53.068Z,22.6
2018-05-23T14:30:52.911Z,22.6
2018-05-23T14:31:52.228Z,22.6
2018-05-23T14:33:50.930Z,22.6
2018-05-23T14:34:50.528Z,22.6
2018-05-23T14:36:49.756Z,22.5
2018-05-23T14:37:49.079Z,22.5
2018-05-23T14:42:46.452Z,22.4
2018-05-23T14:43:16.968Z,22.4
2018-05-23T14:45:44.755Z,22.4
2018-05-23T14:46:43.953Z,22.4
2018-05-23T14:47:43.880Z,22.4
2018-05-23T14:49:42.600Z,22.3
2018-05-23T14:50:41.912Z,22.3
2018-05-23T14:51:41.735Z,22.3
2018-05-23T14:53:40.329Z,22.2
2018-05-23T14:54:40.143Z,22.2
2018-05-23T14:55:10.779Z,22.2
2018-05-23T14:55:41.004Z,22.2
2018-05-23T14:56:38.821Z,22.2
2018-05-23T14:57:38.133Z,22.2
2018-05-23T14:58:37.950Z,22.2
2018-05-23T15:00:36.956Z,22.1
2018-05-23T15:01:36.060Z,22.1
2018-05-23T15:02:35.272Z,22.1
2018-05-23T15:03:34.980Z,22.1
2018-05-23T15:04:34.696Z,22.1
2018-05-23T15:05:33.746Z,22.1
2018-05-23T15:06:33.448Z,22.1
2018-05-23T15:07:32.668Z,22
2018-05-23T15:08:32.608Z,22
2018-05-23T15:09:31.862Z,22.1
2018-05-23T15:10:31.570Z,22
2018-05-23T15:11:30.881Z,22
2018-05-23T15:12:30.299Z,22
2018-05-23T15:13:29.521Z,22
2018-05-23T15:14:00.147Z,22
2018-05-23T15:14:30.669Z,22
2018-05-23T15:15:01.306Z,22
2018-05-23T15:15:31.798Z,22
2018-05-23T15:16:02.233Z,22
2018-05-23T15:17:27.497Z,21.9
2018-05-23T15:18:26.810Z,21.9
2018-05-23T15:19:26.427Z,21.9
2018-05-23T15:20:25.852Z,21.8
2018-05-23T15:21:25.561Z,21.8
2018-05-23T15:22:24.560Z,21.8
2018-05-23T15:23:24.269Z,21.8
2018-05-23T15:25:23.259Z,21.8
2018-05-23T15:25:53.775Z,21.8
2018-05-23T15:26:24.401Z,21.8
2018-05-23T15:26:54.912Z,21.8
2018-05-23T15:27:25.428Z,21.8
2018-05-23T15:27:56.054Z,21.8
2018-05-23T15:28:26.692Z,21.8
2018-05-23T15:28:57.313Z,21.8
2018-05-23T15:30:20.170Z,21.7
2018-05-23T15:31:19.993Z,21.7
2018-05-23T15:33:18.723Z,21.8
2018-05-23T15:34:17.934Z,21.7
2018-05-23T15:36:17.137Z,21.7
2018-05-23T15:37:16.450Z,21.7
2018-05-23T15:38:16.165Z,21.7
2018-05-23T15:38:46.792Z,21.7
2018-05-23T15:40:14.685Z,21.7
2018-05-23T15:41:14.511Z,21.6
2018-05-23T15:42:13.845Z,21.6
2018-05-23T15:43:13.448Z,21.6
2018-05-23T15:44:12.761Z,21.6
2018-05-23T15:45:12.369Z,21.6
2018-05-23T15:46:11.692Z,21.5
2018-05-23T15:47:11.113Z,21.5
2018-05-23T15:48:10.725Z,21.5
2018-05-23T15:49:10.044Z,21.5
2018-05-23T15:50:09.480Z,21.5
2018-05-23T15:51:08.954Z,21.5
2018-05-23T15:52:08.066Z,21.4
2018-05-23T15:53:07.874Z,21.4
2018-05-23T15:54:06.870Z,21.3
2018-05-23T15:55:06.821Z,21.4
2018-05-23T15:56:05.946Z,21.4
2018-05-23T15:57:05.776Z,21.4
2018-05-23T15:57:36.291Z,21.4
2018-05-23T15:59:04.300Z,21.4
2018-05-23T15:59:34.924Z,21.4
2018-05-23T16:01:03.430Z,21.5
2018-05-23T16:02:02.536Z,21.5
2018-05-23T16:03:02.577Z,21.5
2018-05-23T16:04:01.535Z,21.5
2018-05-23T16:05:01.145Z,21.5
2018-05-23T16:06:00.495Z,21.5
2018-05-23T16:07:00.308Z,21.6
2018-05-23T16:07:59.626Z,21.6
2018-05-23T16:08:30.271Z,21.6
2018-05-23T16:09:00.403Z,21.6
2018-05-23T16:09:31.286Z,21.6
2018-05-23T16:10:01.149Z,21.6
2018-05-23T16:10:31.574Z,21.6
2018-05-23T16:11:02.111Z,21.6
2018-05-23T16:11:32.417Z,21.6
2018-05-23T16:12:03.040Z,21.6
2018-05-23T16:12:56.713Z,21.6
2018-05-23T16:13:56.413Z,21.7
2018-05-23T16:14:56.217Z,21.7
2018-05-23T16:15:55.113Z,21.7
2018-05-23T16:16:54.525Z,21.7
2018-05-23T16:17:53.847Z,21.7
2018-05-23T16:18:53.569Z,21.7
2018-05-23T16:19:52.886Z,21.7
2018-05-23T16:20:52.204Z,21.7
2018-05-23T16:21:51.628Z,21.7
2018-05-23T16:22:51.445Z,21.8
2018-05-23T16:23:50.660Z,21.8
2018-05-23T16:24:49.988Z,21.8
2018-05-23T16:29:47.359Z,21.8
2018-05-23T16:30:46.679Z,21.8
2018-05-23T16:32:45.674Z,21.8
2018-05-23T16:33:44.670Z,21.8
2018-05-23T16:34:44.492Z,21.9
2018-05-23T16:35:43.813Z,21.9
2018-05-23T16:36:14.335Z,21.9
2018-05-23T16:36:44.857Z,21.9
2018-05-23T16:37:15.589Z,21.9
2018-05-23T16:37:45.997Z,22
2018-05-23T16:38:42.297Z,22
2018-05-23T16:39:42.003Z,22
2018-05-23T16:40:41.321Z,22
2018-05-23T16:41:40.930Z,22
2018-05-23T16:42:40.033Z,22.1
2018-05-23T16:44:39.253Z,22.1
2018-05-23T16:45:38.459Z,22.1
2018-05-23T16:47:37.276Z,22.1
2018-05-23T16:48:36.598Z,22.1
2018-05-23T16:49:36.220Z,22.1
2018-05-23T16:50:35.638Z,22
2018-05-23T16:51:35.061Z,22
2018-05-23T16:52:34.498Z,22
2018-05-23T16:53:34.222Z,22
2018-05-23T16:55:32.933Z,21.9
2018-05-23T16:56:32.027Z,21.9
2018-05-23T16:57:02.662Z,21.9
2018-05-23T16:57:33.340Z,21.9
2018-05-23T16:58:03.854Z,21.9
2018-05-23T16:58:34.388Z,21.9
2018-05-23T16:59:30.699Z,21.9
2018-05-23T17:00:29.907Z,21.9
2018-05-23T17:02:29.227Z,21.8
2018-05-23T17:04:27.935Z,21.8
2018-05-23T17:05:27.141Z,21.8
2018-05-23T17:06:26.907Z,21.8
2018-05-23T17:06:57.447Z,21.8
2018-05-23T17:07:28.067Z,21.8
2018-05-23T17:07:58.084Z,21.8
2018-05-23T17:08:28.728Z,21.8
2018-05-23T17:08:59.247Z,21.8
2018-05-23T17:09:29.868Z,21.8
2018-05-23T17:10:00.174Z,21.8
2018-05-23T17:12:23.592Z,21.8
2018-05-23T17:14:22.133Z,21.8
2018-05-23T17:15:21.559Z,21.8
2018-05-23T17:16:21.379Z,21.8
2018-05-23T17:17:20.692Z,21.8
2018-05-23T17:19:19.795Z,21.8
2018-05-23T17:19:50.027Z,21.8
2018-05-23T17:20:20.442Z,21.8
2018-05-23T17:20:51.097Z,21.8
2018-05-23T17:22:17.719Z,21.7
2018-05-23T17:23:17.432Z,21.7
2018-05-23T17:24:16.639Z,21.7
2018-05-23T17:26:15.740Z,21.7
2018-05-23T17:28:14.440Z,21.7
2018-05-23T17:29:13.767Z,21.6
2018-05-23T17:31:12.774Z,21.7
2018-05-23T17:34:11.464Z,21.6
2018-05-23T17:36:09.967Z,21.7
2018-05-23T17:37:09.389Z,21.7
2018-05-23T17:39:08.491Z,21.7
2018-05-23T17:39:39.226Z,21.7
2018-05-23T17:41:07.226Z,21.7
2018-05-23T17:42:06.318Z,21.7
2018-05-23T17:43:06.148Z,21.7
2018-05-23T17:44:05.357Z,21.7
2018-05-23T17:45:05.180Z,21.7
2018-05-23T17:46:04.171Z,21.6
2018-05-23T17:48:03.162Z,21.6
2018-05-23T17:49:02.664Z,21.6
2018-05-23T17:49:33.183Z,21.6
2018-05-23T17:52:01.078Z,21.5
2018-05-23T17:52:31.499Z,21.5
2018-05-23T17:53:02.141Z,21.5
2018-05-23T17:53:32.800Z,21.5
2018-05-23T17:54:03.315Z,21.5
2018-05-23T17:54:59.716Z,21.5
2018-05-23T17:55:58.928Z,21.5
2018-05-23T17:56:58.198Z,21.5
2018-05-23T17:57:57.866Z,21.5
2018-05-23T17:58:57.076Z,21.4
2018-05-23T17:59:56.493Z,21.4
2018-05-23T18:00:55.814Z,21.4
2018-05-23T18:01:55.724Z,21.5
2018-05-23T18:02:26.136Z,21.5
2018-05-23T18:03:54.651Z,21.4
2018-05-23T18:04:53.757Z,21.4
2018-05-23T18:05:53.617Z,21.4
2018-05-23T18:06:52.595Z,21.4
2018-05-23T18:07:52.319Z,21.4
2018-05-23T18:08:51.728Z,21.4
2018-05-23T18:09:50.838Z,21.4
2018-05-23T18:10:50.653Z,21.4
2018-05-23T18:11:49.869Z,21.4
2018-05-23T18:12:49.290Z,21.4
2018-05-23T18:13:48.712Z,21.4
2018-05-23T18:14:48.030Z,21.4
2018-05-23T18:15:47.345Z,21.3
2018-05-23T18:16:46.972Z,21.3
2018-05-23T18:17:46.577Z,21.3
2018-05-23T18:18:46.138Z,21.3
2018-05-23T18:19:45.240Z,21.3
2018-05-23T18:20:44.971Z,21.3
2018-05-23T18:21:44.425Z,21.3
2018-05-23T18:24:42.311Z,21.3
2018-05-23T18:25:42.245Z,21.3
2018-05-23T18:26:41.064Z,21.3
2018-05-23T18:27:40.773Z,21.3
2018-05-23T18:28:39.990Z,21.3
2018-05-23T18:29:39.978Z,21.3
2018-05-23T18:30:39.119Z,21.3
2018-05-23T18:32:37.821Z,21.3
2018-05-23T18:33:37.311Z,21.3
2018-05-23T18:35:36.370Z,21.2
2018-05-23T18:36:35.477Z,21.2
2018-05-23T18:37:35.413Z,21.2
2018-05-23T18:38:34.472Z,21.2
2018-05-23T18:39:34.063Z,21.2
2018-05-23T18:40:33.383Z,21.2
2018-05-23T18:41:32.703Z,21.1
2018-05-23T18:42:32.413Z,21.1
2018-05-23T18:43:31.631Z,21.1
2018-05-23T18:44:30.941Z,21.1
2018-05-23T18:45:30.758Z,21.1
2018-05-23T18:47:29.369Z,21.1
2018-05-23T18:48:28.682Z,21.1
2018-05-23T18:48:59.317Z,21.1
2018-05-23T18:49:30.022Z,21.1
2018-05-23T18:49:59.947Z,21.1
2018-05-23T18:50:30.351Z,21.1
2018-05-23T18:51:00.871Z,21.1
2018-05-23T18:52:26.651Z,21.1
2018-05-23T18:54:25.396Z,21
2018-05-23T18:56:24.392Z,21
2018-05-23T18:57:23.461Z,21
2018-05-23T18:58:23.277Z,21
2018-05-23T18:59:22.273Z,21
2018-05-23T18:59:52.911Z,21
2018-05-23T19:00:23.027Z,21
2018-05-23T19:00:53.547Z,21
2018-05-23T19:01:23.847Z,21
2018-05-23T19:01:54.371Z,21
2018-05-23T19:03:20.251Z,21
2018-05-23T19:04:19.562Z,21
2018-05-23T19:05:19.003Z,21
2018-05-23T19:06:18.678Z,21
2018-05-23T19:07:17.881Z,21
2018-05-23T19:08:17.200Z,20.9
2018-05-23T19:10:16.054Z,20.9
2018-05-23T19:11:15.662Z,20.9
2018-05-23T19:12:15.025Z,20.9
2018-05-23T19:13:14.230Z,20.8
2018-05-23T19:13:44.765Z,20.8
2018-05-23T19:14:14.906Z,20.8
2018-05-23T19:15:13.319Z,20.8
2018-05-23T19:16:12.639Z,20.8
2018-05-23T19:17:11.970Z,20.7
2018-05-23T19:18:11.280Z,20.7
2018-05-23T19:19:11.098Z,20.7
2018-05-23T19:19:41.891Z,20.7
2018-05-23T19:21:09.785Z,20.6
2018-05-23T19:22:09.208Z,20.6
2018-05-23T19:23:08.413Z,20.6
2018-05-23T19:24:08.119Z,20.5
2018-05-23T19:25:07.332Z,20.5
2018-05-23T19:26:06.647Z,20.5
2018-05-23T19:27:06.146Z,20.4
2018-05-23T19:28:05.466Z,20.4
2018-05-23T19:29:05.279Z,20.4
2018-05-23T19:31:03.653Z,20.3
2018-05-23T19:31:34.070Z,20.3
2018-05-23T19:32:04.585Z,20.3
2018-05-23T19:32:35.104Z,20.3
2018-05-23T19:33:05.516Z,20.4